createdAt,value
2023-11-23T00:00:00.931Z,21.35
2023-11-23T00:02:06.607Z,24.80
2023-11-23T00:04:08.846Z,18.80
2023-11-23T00:06:10.733Z,24.92
2023-11-23T00:08:13.337Z,25.02
2023-11-23T00:10:15.554Z,24.70
2023-11-23T00:12:17.357Z,26.08
2023-11-23T00:14:19.096Z,25.67
2023-11-23T00:16:20.813Z,23.92
2023-11-23T00:18:22.637Z,21.75
2023-11-23T00:20:24.571Z,23.08
2023-11-23T00:22:27.537Z,23.63
2023-11-23T00:24:29.498Z,21.73
2023-11-23T00:26:31.242Z,26.77
2023-11-23T00:28:32.956Z,25.83
2023-11-23T00:30:34.683Z,23.33
2023-11-23T00:32:36.662Z,21.65
2023-11-23T00:34:38.468Z,21.27
2023-11-23T00:36:40.319Z,23.10
2023-11-23T00:38:44.652Z,23.95
2023-11-23T00:40:46.362Z,20.70
2023-11-23T00:42:48.098Z,22.75
2023-11-23T00:44:49.871Z,20.15
2023-11-23T00:46:51.732Z,26.23
2023-11-23T00:48:55.011Z,25.23
2023-11-23T00:50:56.761Z,27.00
2023-11-23T00:52:58.498Z,25.33
2023-11-23T00:55:00.648Z,20.80
2023-11-23T00:57:02.368Z,25.77
2023-11-23T00:59:04.969Z,26.33
2023-11-23T01:01:06.877Z,23.50
2023-11-23T01:03:08.866Z,25.20
2023-11-23T01:05:16.583Z,25.77
2023-11-23T01:07:18.649Z,29.10
2023-11-23T01:09:20.380Z,30.23
2023-11-23T01:11:22.075Z,28.70
2023-11-23T01:13:23.817Z,26.48
2023-11-23T01:15:25.628Z,26.10
2023-11-23T01:17:27.352Z,31.30
2023-11-23T01:19:29.050Z,23.75
2023-11-23T01:21:30.896Z,34.85
2023-11-23T01:23:32.635Z,27.48
2023-11-23T01:25:34.390Z,27.90
2023-11-23T01:27:36.888Z,24.98
2023-11-23T01:29:38.607Z,30.83
2023-11-23T01:31:40.340Z,29.92
2023-11-23T01:33:42.217Z,27.10
2023-11-23T01:35:44.024Z,30.98
2023-11-23T01:37:45.754Z,33.10
2023-11-23T01:39:47.472Z,27.27
2023-11-23T01:41:49.330Z,30.77
2023-11-23T01:43:51.133Z,25.70
2023-11-23T01:45:52.887Z,33.15
2023-11-23T01:47:55.043Z,33.92
2023-11-23T01:49:58.925Z,28.02
2023-11-23T01:52:00.703Z,28.98
2023-11-23T01:54:02.621Z,25.90
2023-11-23T01:56:04.857Z,30.75
2023-11-23T01:58:10.073Z,30.88
2023-11-23T02:00:12.274Z,27.95
2023-11-23T02:02:14.529Z,29.02
2023-11-23T02:04:17.512Z,25.70
2023-11-23T02:06:21.230Z,28.60
2023-11-23T02:08:23.147Z,29.83
2023-11-23T02:10:24.960Z,29.38
2023-11-23T02:12:27.975Z,27.63
2023-11-23T02:14:32.475Z,28.15
2023-11-23T02:16:35.735Z,31.02
2023-11-23T02:18:39.131Z,27.00
2023-11-23T02:20:43.060Z,24.70
2023-11-23T02:22:44.773Z,26.38
2023-11-23T02:24:46.635Z,27.50
2023-11-23T02:26:48.536Z,27.92
2023-11-23T02:28:50.326Z,27.92
2023-11-23T02:30:52.199Z,25.63
2023-11-23T02:32:55.131Z,29.77
2023-11-23T02:34:56.905Z,26.77
2023-11-23T02:36:58.660Z,28.33
2023-11-23T02:39:01.212Z,25.83
2023-11-23T02:41:02.947Z,26.42
2023-11-23T02:43:06.789Z,27.33
2023-11-23T02:45:09.242Z,27.25
2023-11-23T02:47:11.040Z,29.55
2023-11-23T02:49:12.764Z,23.88
2023-11-23T02:51:16.038Z,26.25
2023-11-23T02:53:31.451Z,29.13
2023-11-23T02:55:33.464Z,30.25
2023-11-23T02:57:35.896Z,25.95
2023-11-23T02:59:37.656Z,26.30
2023-11-23T03:01:39.420Z,24.80
2023-11-23T03:03:41.302Z,24.35
2023-11-23T03:05:43.255Z,27.90
2023-11-23T03:07:44.991Z,25.98
2023-11-23T03:09:47.058Z,29.45
2023-11-23T03:11:48.768Z,30.40
2023-11-23T03:13:50.508Z,27.38
2023-11-23T03:15:52.372Z,28.27
2023-11-23T03:17:54.301Z,27.08
2023-11-23T03:19:56.505Z,31.33
2023-11-23T03:21:59.099Z,27.33
2023-11-23T03:24:01.004Z,30.42
2023-11-23T03:26:03.129Z,26.42
2023-11-23T03:28:07.782Z,29.70
2023-11-23T03:30:10.892Z,34.22
2023-11-23T03:32:12.666Z,26.30
2023-11-23T03:34:14.408Z,26.73
2023-11-23T03:36:16.186Z,30.98
2023-11-23T03:38:18.616Z,33.38
2023-11-23T03:40:20.366Z,30.70
2023-11-23T03:42:22.309Z,34.25
2023-11-23T03:44:24.105Z,30.05
2023-11-23T03:46:25.881Z,30.15
2023-11-23T03:48:27.729Z,33.90
2023-11-23T03:50:29.490Z,27.70
2023-11-23T03:52:31.185Z,31.27
2023-11-23T03:54:32.985Z,28.65
2023-11-23T03:56:38.988Z,27.55
2023-11-23T03:58:40.850Z,29.45
2023-11-23T04:00:42.637Z,28.10
2023-11-23T04:02:45.131Z,27.70
2023-11-23T04:04:46.898Z,29.90
2023-11-23T04:06:48.630Z,26.75
2023-11-23T04:08:50.367Z,27.50
2023-11-23T04:10:52.628Z,28.48
2023-11-23T04:12:54.350Z,27.38
2023-11-23T04:14:57.512Z,29.40
2023-11-23T04:16:59.307Z,31.35
2023-11-23T04:19:01.064Z,27.65
2023-11-23T04:21:02.869Z,27.45
2023-11-23T04:23:04.642Z,27.95
2023-11-23T04:25:06.922Z,29.45
2023-11-23T04:27:10.397Z,25.83
2023-11-23T04:29:12.166Z,40.08
2023-11-23T04:31:13.901Z,31.25
2023-11-23T04:33:15.722Z,28.75
2023-11-23T04:35:17.481Z,26.58
2023-11-23T04:37:19.565Z,34.85
2023-11-23T04:39:21.420Z,27.65
2023-11-23T04:41:23.205Z,33.40
2023-11-23T04:43:24.973Z,29.20
2023-11-23T04:45:26.798Z,34.83
2023-11-23T04:47:28.580Z,29.73
2023-11-23T04:49:30.307Z,27.40
2023-11-23T04:51:32.048Z,35.38
2023-11-23T04:53:33.778Z,27.98
2023-11-23T04:55:36.558Z,26.67
2023-11-23T04:57:38.339Z,25.00
2023-11-23T04:59:40.256Z,28.40
2023-11-23T05:01:42.077Z,26.67
2023-11-23T05:03:43.956Z,23.88
2023-11-23T05:05:45.772Z,23.25
2023-11-23T05:07:47.906Z,28.77
2023-11-23T05:09:49.673Z,20.90
2023-11-23T05:11:51.381Z,20.63
2023-11-23T05:13:53.248Z,23.90
2023-11-23T05:15:55.007Z,21.40
2023-11-23T05:17:56.871Z,22.20
2023-11-23T05:19:58.657Z,20.30
2023-11-23T05:22:00.488Z,20.27
2023-11-23T05:24:04.553Z,20.63
2023-11-23T05:26:06.826Z,25.30
2023-11-23T05:28:08.594Z,22.52
2023-11-23T05:30:10.746Z,19.33
2023-11-23T05:32:12.494Z,22.10
2023-11-23T05:34:14.312Z,20.27
2023-11-23T05:36:16.562Z,23.13
2023-11-23T05:38:18.344Z,24.00
2023-11-23T05:40:20.084Z,17.73
2023-11-23T05:42:21.828Z,21.42
2023-11-23T05:44:23.561Z,22.45
2023-11-23T05:46:25.513Z,23.45
2023-11-23T05:48:27.427Z,27.30
2023-11-23T05:50:29.233Z,18.38
2023-11-23T05:52:31.510Z,15.63
2023-11-23T05:54:33.325Z,14.95
2023-11-23T05:56:35.243Z,21.10
2023-11-23T05:58:37.101Z,18.23
2023-11-23T06:00:38.844Z,16.30
2023-11-23T06:02:42.540Z,16.83
2023-11-23T06:04:44.464Z,12.63
2023-11-23T06:06:46.257Z,18.80
2023-11-23T06:08:48.462Z,12.48
2023-11-23T06:10:52.309Z,16.35
2023-11-23T06:12:54.100Z,12.60
2023-11-23T06:14:55.969Z,17.25
2023-11-23T06:16:57.789Z,11.80
2023-11-23T06:19:03.373Z,14.15
2023-11-23T06:21:06.604Z,14.45
2023-11-23T06:23:08.367Z,15.45
2023-11-23T06:25:10.103Z,9.73
2023-11-23T06:27:11.953Z,10.20
2023-11-23T06:29:14.717Z,11.50
2023-11-23T06:31:16.526Z,12.48
2023-11-23T06:33:18.540Z,12.15
2023-11-23T06:35:20.346Z,13.85
2023-11-23T06:37:22.045Z,10.80
2023-11-23T06:39:26.707Z,14.32
2023-11-23T06:41:28.487Z,15.05
2023-11-23T06:43:30.706Z,11.05
2023-11-23T06:45:32.560Z,8.75
2023-11-23T06:47:34.335Z,9.45
2023-11-23T06:49:36.430Z,11.63
2023-11-23T06:51:38.394Z,14.98
2023-11-23T06:53:45.073Z,13.63
2023-11-23T06:55:46.846Z,8.02
2023-11-23T06:57:48.543Z,13.07
2023-11-23T06:59:50.376Z,10.82
2023-11-23T07:01:52.186Z,14.20
2023-11-23T07:03:54.032Z,13.75
2023-11-23T07:05:55.837Z,9.15
2023-11-23T07:07:57.896Z,7.60
2023-11-23T07:09:59.594Z,14.40
2023-11-23T07:12:01.584Z,12.75
2023-11-23T07:14:03.409Z,9.65
2023-11-23T07:16:06.318Z,15.73
2023-11-23T07:18:08.180Z,6.72
2023-11-23T07:20:13.817Z,13.88
2023-11-23T07:22:15.570Z,14.35
2023-11-23T07:24:17.957Z,14.32
2023-11-23T07:26:19.798Z,10.02
2023-11-23T07:28:26.778Z,10.30
2023-11-23T07:30:28.564Z,12.88
2023-11-23T07:32:30.571Z,11.15
2023-11-23T07:34:32.274Z,10.55
2023-11-23T07:36:34.222Z,6.78
2023-11-23T07:38:35.993Z,11.05
2023-11-23T07:40:37.728Z,11.73
2023-11-23T07:42:44.458Z,8.23
2023-11-23T07:44:47.737Z,12.18
2023-11-23T07:46:49.538Z,15.20
2023-11-23T07:48:54.115Z,12.80
2023-11-23T07:50:56.143Z,13.18
2023-11-23T07:52:58.448Z,16.75
2023-11-23T07:55:00.205Z,9.50
2023-11-23T07:57:01.969Z,10.52
2023-11-23T07:59:03.921Z,7.30
2023-11-23T08:01:06.000Z,9.25
2023-11-23T08:03:07.939Z,11.95
2023-11-23T08:05:10.619Z,12.40
2023-11-23T08:07:12.458Z,9.95
2023-11-23T08:09:17.529Z,7.97
2023-11-23T08:11:19.496Z,9.27
2023-11-23T08:13:21.678Z,8.77
2023-11-23T08:15:23.396Z,7.10
2023-11-23T08:17:25.162Z,4.97
2023-11-23T08:19:26.954Z,6.13
2023-11-23T08:21:29.178Z,7.55
2023-11-23T08:23:31.360Z,9.98
2023-11-23T08:25:33.221Z,10.27
2023-11-23T08:27:36.572Z,8.45
2023-11-23T08:29:39.695Z,5.60
2023-11-23T08:31:42.653Z,10.10
2023-11-23T08:33:44.394Z,10.90
2023-11-23T08:35:49.860Z,9.93
2023-11-23T08:37:51.575Z,7.13
2023-11-23T08:39:53.358Z,6.80
2023-11-23T08:41:55.436Z,4.97
2023-11-23T08:43:57.425Z,6.80
2023-11-23T08:45:59.368Z,10.85
2023-11-23T08:48:02.177Z,14.27
2023-11-23T08:50:04.411Z,7.07
2023-11-23T08:52:06.278Z,6.45
2023-11-23T08:54:09.624Z,4.40
2023-11-23T08:56:14.383Z,9.57
2023-11-23T08:58:16.426Z,8.10
2023-11-23T09:00:25.216Z,3.88
2023-11-23T09:02:27.242Z,6.97
2023-11-23T09:04:36.731Z,6.85
2023-11-23T09:06:45.126Z,7.85
2023-11-23T09:08:46.872Z,5.80
2023-11-23T09:10:49.913Z,9.02
2023-11-23T09:12:52.160Z,8.32
2023-11-23T09:14:58.390Z,7.05
2023-11-23T09:17:00.257Z,9.98
2023-11-23T09:19:02.646Z,9.02
2023-11-23T09:21:04.911Z,4.32
2023-11-23T09:23:07.426Z,11.40
2023-11-23T09:25:09.536Z,15.32
2023-11-23T09:27:16.062Z,8.75
2023-11-23T09:29:17.892Z,10.25
2023-11-23T09:31:19.754Z,8.45
2023-11-23T09:33:24.671Z,4.68
2023-11-23T09:35:27.720Z,10.95
2023-11-23T09:37:29.685Z,4.40
2023-11-23T09:39:32.054Z,10.85
2023-11-23T09:41:36.081Z,11.60
2023-11-23T09:43:37.804Z,7.20
2023-11-23T09:45:40.189Z,7.75
2023-11-23T09:47:42.786Z,10.48
2023-11-23T09:49:45.837Z,6.75
2023-11-23T09:51:50.202Z,9.45
2023-11-23T09:53:56.275Z,6.03
2023-11-23T09:56:01.359Z,12.05
2023-11-23T09:58:06.301Z,4.90
2023-11-23T10:00:10.861Z,5.28
2023-11-23T10:02:15.286Z,3.83
2023-11-23T10:04:17.472Z,7.40
2023-11-23T10:06:19.381Z,5.15
2023-11-23T10:08:21.192Z,7.32
2023-11-23T10:10:26.339Z,6.78
2023-11-23T10:12:29.209Z,5.82
2023-11-23T10:14:31.142Z,6.63
2023-11-23T10:16:36.605Z,6.00
2023-11-23T10:18:39.286Z,6.22
2023-11-23T10:20:48.105Z,10.68
2023-11-23T10:22:50.876Z,5.80
2023-11-23T10:24:52.854Z,5.13
2023-11-23T10:26:55.146Z,12.27
2023-11-23T10:28:57.047Z,4.40
2023-11-23T10:31:03.884Z,10.77
2023-11-23T10:33:06.802Z,8.65
2023-11-23T10:35:11.159Z,7.28
2023-11-23T10:37:15.574Z,5.75
2023-11-23T10:39:20.383Z,7.25
2023-11-23T10:41:22.845Z,2.63
2023-11-23T10:43:26.834Z,3.53
2023-11-23T10:45:29.675Z,4.82
2023-11-23T10:47:33.599Z,8.00
2023-11-23T10:49:36.062Z,4.82
2023-11-23T10:51:38.862Z,4.03
2023-11-23T10:53:43.308Z,11.55
2023-11-23T10:55:45.439Z,4.20
2023-11-23T10:57:55.900Z,3.50
2023-11-23T10:59:57.942Z,7.18
2023-11-23T11:02:00.162Z,6.38
2023-11-23T11:04:02.257Z,6.40
2023-11-23T11:06:12.290Z,3.47
2023-11-23T11:08:22.322Z,9.27
2023-11-23T11:10:24.164Z,7.22
2023-11-23T11:12:36.841Z,7.20
2023-11-23T11:14:41.161Z,5.65
2023-11-23T11:16:43.380Z,9.93
2023-11-23T11:18:55.589Z,6.15
2023-11-23T11:21:15.009Z,8.52
2023-11-23T11:23:16.757Z,6.57
2023-11-23T11:25:18.607Z,2.90
2023-11-23T11:27:20.505Z,5.18
2023-11-23T11:29:22.559Z,7.38
2023-11-23T11:31:36.715Z,3.80
2023-11-23T11:33:42.041Z,3.13
2023-11-23T11:35:48.782Z,5.95
2023-11-23T11:37:51.962Z,9.75
2023-11-23T11:39:53.909Z,3.97
2023-11-23T11:42:01.152Z,5.85
2023-11-23T11:44:05.443Z,6.90
2023-11-23T11:46:08.374Z,4.80
2023-11-23T11:48:10.913Z,5.72
2023-11-23T11:50:14.303Z,8.20
2023-11-23T11:52:16.537Z,9.70
2023-11-23T11:54:23.324Z,4.18
2023-11-23T11:56:25.093Z,6.38
2023-11-23T11:58:28.193Z,5.10
2023-11-23T12:00:34.997Z,2.80
2023-11-23T12:02:36.908Z,5.72
2023-11-23T12:04:40.008Z,9.55
2023-11-23T12:06:41.956Z,5.72
2023-11-23T12:08:44.456Z,10.88
2023-11-23T12:10:46.480Z,1.38
2023-11-23T12:12:49.148Z,6.50
2023-11-23T12:14:51.142Z,10.10
2023-11-23T12:16:54.194Z,5.78
2023-11-23T12:18:56.568Z,4.50
2023-11-23T12:20:59.321Z,4.72
2023-11-23T12:23:04.470Z,7.88
2023-11-23T12:25:07.165Z,5.53
2023-11-23T12:27:08.955Z,5.40
2023-11-23T12:29:10.714Z,4.82
2023-11-23T12:31:14.091Z,2.75
2023-11-23T12:33:16.206Z,5.88
2023-11-23T12:35:18.017Z,8.13
2023-11-23T12:37:20.684Z,4.25
2023-11-23T12:39:22.522Z,3.80
2023-11-23T12:41:24.367Z,6.05
2023-11-23T12:43:26.453Z,6.72
2023-11-23T12:45:28.683Z,7.95
2023-11-23T12:47:31.604Z,5.25
2023-11-23T12:49:33.481Z,10.10
2023-11-23T12:51:35.263Z,6.88
2023-11-23T12:53:37.003Z,8.77
2023-11-23T12:55:38.919Z,5.25
2023-11-23T12:57:40.880Z,3.35
2023-11-23T12:59:42.687Z,9.15
2023-11-23T13:01:44.515Z,4.35
2023-11-23T13:03:46.320Z,6.20
2023-11-23T13:05:51.049Z,5.93
2023-11-23T13:07:52.792Z,4.82
2023-11-23T13:09:54.593Z,3.03
2023-11-23T13:11:58.321Z,4.97
2023-11-23T13:14:00.255Z,5.88
2023-11-23T13:16:02.606Z,5.72
2023-11-23T13:18:05.843Z,7.05
2023-11-23T13:20:11.645Z,5.78
2023-11-23T13:22:13.827Z,6.53
2023-11-23T13:24:15.658Z,7.50
2023-11-23T13:26:17.430Z,4.20
2023-11-23T13:28:19.897Z,6.30
2023-11-23T13:30:21.619Z,5.20
2023-11-23T13:32:23.439Z,2.20
2023-11-23T13:34:25.143Z,4.30
2023-11-23T13:36:26.914Z,7.43
2023-11-23T13:38:28.798Z,5.75
2023-11-23T13:40:30.527Z,5.82
2023-11-23T13:42:33.090Z,5.05
2023-11-23T13:44:35.662Z,5.00
2023-11-23T13:46:38.514Z,7.93
2023-11-23T13:48:40.336Z,4.97
2023-11-23T13:50:43.882Z,8.27
2023-11-23T13:52:46.283Z,7.85
2023-11-23T13:54:49.202Z,5.57
2023-11-23T13:56:52.132Z,3.55
2023-11-23T13:58:53.988Z,6.70
2023-11-23T14:00:55.700Z,4.82
2023-11-23T14:02:57.615Z,3.78
2023-11-23T14:04:59.357Z,4.38
2023-11-23T14:07:01.869Z,7.65
2023-11-23T14:09:05.032Z,7.35
2023-11-23T14:11:07.470Z,7.65
2023-11-23T14:13:09.556Z,3.97
2023-11-23T14:15:13.229Z,4.53
2023-11-23T14:17:15.961Z,9.23
2023-11-23T14:19:18.594Z,3.38
2023-11-23T14:21:20.560Z,5.88
2023-11-23T14:23:22.519Z,3.65
2023-11-23T14:25:24.228Z,13.07
2023-11-23T14:27:29.396Z,7.35
2023-11-23T14:29:33.747Z,6.22
2023-11-23T14:31:35.520Z,3.58
2023-11-23T14:33:37.259Z,6.68
2023-11-23T14:35:39.309Z,11.20
2023-11-23T14:37:42.107Z,6.47
2023-11-23T14:39:46.917Z,4.97
2023-11-23T14:41:48.708Z,11.05
2023-11-23T14:43:50.916Z,9.45
2023-11-23T14:45:52.758Z,12.25
2023-11-23T14:47:54.872Z,6.75
2023-11-23T14:49:56.629Z,8.35
2023-11-23T14:51:58.388Z,6.80
2023-11-23T14:54:09.994Z,8.32
2023-11-23T14:56:14.988Z,9.75
2023-11-23T14:58:17.451Z,9.95
2023-11-23T15:00:19.797Z,4.00
2023-11-23T15:02:23.190Z,7.40
2023-11-23T15:04:25.328Z,8.55
2023-11-23T15:06:27.677Z,10.45
2023-11-23T15:08:29.418Z,3.95
2023-11-23T15:10:32.603Z,11.82
2023-11-23T15:12:34.471Z,6.18
2023-11-23T15:14:36.353Z,3.33
2023-11-23T15:16:38.124Z,5.15
2023-11-23T15:18:40.143Z,4.63
2023-11-23T15:20:41.968Z,5.65
2023-11-23T15:22:44.039Z,3.33
2023-11-23T15:24:46.056Z,4.63
2023-11-23T15:26:48.551Z,6.65
2023-11-23T15:28:50.645Z,3.33
2023-11-23T15:30:52.436Z,3.70
2023-11-23T15:32:58.100Z,4.80
2023-11-23T15:35:00.152Z,5.40
2023-11-23T15:37:02.199Z,7.28
2023-11-23T15:39:08.200Z,8.23
2023-11-23T15:41:10.238Z,4.22
2023-11-23T15:43:12.729Z,15.20
2023-11-23T15:45:16.274Z,5.20
2023-11-23T15:47:18.107Z,6.10
2023-11-23T15:49:19.920Z,9.20
2023-11-23T15:51:21.971Z,9.05
2023-11-23T15:53:23.902Z,7.18
2023-11-23T15:55:26.249Z,7.68
2023-11-23T15:57:28.764Z,7.70
2023-11-23T15:59:30.768Z,9.05
2023-11-23T16:01:32.865Z,14.23
2023-11-23T16:03:34.694Z,9.80
2023-11-23T16:05:36.476Z,7.80
2023-11-23T16:07:38.507Z,14.10
2023-11-23T16:09:40.292Z,10.65
2023-11-23T16:11:45.663Z,12.73
2023-11-23T16:13:47.500Z,7.47
2023-11-23T16:15:51.989Z,10.18
2023-11-23T16:17:54.002Z,11.48
2023-11-23T16:19:55.998Z,5.10
2023-11-23T16:21:57.738Z,9.85
2023-11-23T16:23:59.649Z,9.80
2023-11-23T16:26:01.351Z,8.30
2023-11-23T16:28:04.816Z,13.52
2023-11-23T16:30:07.740Z,9.65
2023-11-23T16:32:10.270Z,9.88
2023-11-23T16:34:14.417Z,13.70
2023-11-23T16:36:30.176Z,10.20
2023-11-23T16:38:38.588Z,14.38
2023-11-23T16:40:40.289Z,14.43
2023-11-23T16:42:43.452Z,9.25
2023-11-23T16:44:45.448Z,11.90
2023-11-23T16:46:47.289Z,10.90
2023-11-23T16:48:49.105Z,15.27
2023-11-23T16:50:50.986Z,6.57
2023-11-23T16:52:52.725Z,7.03
2023-11-23T16:54:54.514Z,8.88
2023-11-23T16:56:56.296Z,11.15
2023-11-23T16:58:58.254Z,6.40
2023-11-23T17:01:03.179Z,4.53
2023-11-23T17:03:06.536Z,3.92
2023-11-23T17:05:10.513Z,8.70
2023-11-23T17:07:13.801Z,5.18
2023-11-23T17:09:15.835Z,7.07
2023-11-23T17:11:18.699Z,3.85
2023-11-23T17:13:22.687Z,5.50
2023-11-23T17:15:24.419Z,4.45
2023-11-23T17:17:26.180Z,4.22
2023-11-23T17:19:27.976Z,5.65
2023-11-23T17:21:31.169Z,4.90
2023-11-23T17:23:35.511Z,11.93
2023-11-23T17:25:40.547Z,11.35
2023-11-23T17:27:48.585Z,6.53
2023-11-23T17:29:50.854Z,8.18
2023-11-23T17:31:58.554Z,8.93
2023-11-23T17:34:00.838Z,13.65
2023-11-23T17:36:03.000Z,16.25
2023-11-23T17:38:07.027Z,14.35
2023-11-23T17:40:09.726Z,8.85
2023-11-23T17:42:13.028Z,13.32
2023-11-23T17:44:15.825Z,15.57
2023-11-23T17:46:17.761Z,19.75
2023-11-23T17:48:20.232Z,21.08
2023-11-23T17:50:22.265Z,17.00
2023-11-23T17:52:24.007Z,16.35
2023-11-23T17:54:29.821Z,18.05
2023-11-23T17:56:34.386Z,16.27
2023-11-23T17:58:40.670Z,10.02
2023-11-23T18:00:42.545Z,17.52
2023-11-23T18:02:44.794Z,10.25
2023-11-23T18:04:46.784Z,12.43
2023-11-23T18:06:48.856Z,11.43
2023-11-23T18:08:52.897Z,7.80
2023-11-23T18:10:55.010Z,12.07
2023-11-23T18:12:56.765Z,11.13
2023-11-23T18:14:58.519Z,10.70
2023-11-23T18:17:00.316Z,11.70
2023-11-23T18:19:02.700Z,11.27
2023-11-23T18:21:04.852Z,9.48
2023-11-23T18:23:07.130Z,10.25
2023-11-23T18:25:09.337Z,14.65
2023-11-23T18:27:13.422Z,12.07
2023-11-23T18:29:15.678Z,15.65
2023-11-23T18:31:19.964Z,10.35
2023-11-23T18:33:22.825Z,9.10
2023-11-23T18:35:24.898Z,14.73
2023-11-23T18:37:26.614Z,8.65
2023-11-23T18:39:28.797Z,14.18
2023-11-23T18:41:30.631Z,6.38
2023-11-23T18:43:32.739Z,6.85
2023-11-23T18:45:34.984Z,5.28
2023-11-23T18:47:37.060Z,7.07
2023-11-23T18:49:38.820Z,6.13
2023-11-23T18:51:40.559Z,6.35
2023-11-23T18:53:42.649Z,6.68
2023-11-23T18:55:44.917Z,7.40
2023-11-23T18:57:46.869Z,5.80
2023-11-23T18:59:50.250Z,4.95
2023-11-23T19:01:52.962Z,6.70
2023-11-23T19:03:55.793Z,8.48
2023-11-23T19:05:59.646Z,6.38
2023-11-23T19:08:01.494Z,5.53
2023-11-23T19:10:03.822Z,9.70
2023-11-23T19:12:05.901Z,9.65
2023-11-23T19:14:07.756Z,4.80
2023-11-23T19:16:10.153Z,9.68
2023-11-23T19:18:12.482Z,10.18
2023-11-23T19:20:14.593Z,13.90
2023-11-23T19:22:17.456Z,9.82
2023-11-23T19:24:19.433Z,13.77
2023-11-23T19:26:21.487Z,11.27
2023-11-23T19:28:23.348Z,9.75
2023-11-23T19:30:27.230Z,15.88
2023-11-23T19:32:29.602Z,15.80
2023-11-23T19:34:31.631Z,10.07
2023-11-23T19:36:35.252Z,11.93
2023-11-23T19:38:37.647Z,18.42
2023-11-23T19:40:39.760Z,8.75
2023-11-23T19:42:44.688Z,4.68
2023-11-23T19:44:47.752Z,8.27
2023-11-23T19:46:49.708Z,14.48
2023-11-23T19:48:51.867Z,14.93
2023-11-23T19:50:53.990Z,5.18
2023-11-23T19:52:57.809Z,5.47
2023-11-23T19:55:00.775Z,9.30
2023-11-23T19:57:02.495Z,8.52
2023-11-23T19:59:06.056Z,9.57
2023-11-23T20:01:08.562Z,11.20
2023-11-23T20:03:10.365Z,10.20
2023-11-23T20:05:12.352Z,10.13
2023-11-23T20:07:14.122Z,17.45
2023-11-23T20:09:18.874Z,12.05
2023-11-23T20:11:20.593Z,7.90
2023-11-23T20:13:22.476Z,5.18
2023-11-23T20:15:24.234Z,11.15
2023-11-23T20:17:27.128Z,9.88
2023-11-23T20:19:32.007Z,10.50
2023-11-23T20:21:34.651Z,7.45
2023-11-23T20:23:36.485Z,6.28
2023-11-23T20:25:38.179Z,10.93
2023-11-23T20:27:40.184Z,13.13
2023-11-23T20:29:42.007Z,11.32
2023-11-23T20:31:44.526Z,13.55
2023-11-23T20:33:46.465Z,13.07
2023-11-23T20:35:48.742Z,7.70
2023-11-23T20:37:53.498Z,9.90
2023-11-23T20:39:56.937Z,12.23
2023-11-23T20:41:59.372Z,12.65
2023-11-23T20:44:01.113Z,9.68
2023-11-23T20:46:05.240Z,6.95
2023-11-23T20:48:07.244Z,16.02
2023-11-23T20:50:10.052Z,3.85
2023-11-23T20:52:13.552Z,9.75
2023-11-23T20:54:15.473Z,8.52
2023-11-23T20:56:17.538Z,6.93
2023-11-23T20:58:21.460Z,4.43
2023-11-23T21:00:24.334Z,4.80
2023-11-23T21:02:26.498Z,7.25
2023-11-23T21:04:31.164Z,6.60
2023-11-23T21:06:35.275Z,7.47
2023-11-23T21:08:37.437Z,12.35
2023-11-23T21:10:39.557Z,7.68
2023-11-23T21:12:42.097Z,11.93
2023-11-23T21:14:46.244Z,12.25
2023-11-23T21:16:48.053Z,8.32
2023-11-23T21:18:49.941Z,8.52
2023-11-23T21:20:51.696Z,10.82
2023-11-23T21:22:53.468Z,12.52
2023-11-23T21:24:55.225Z,10.88
2023-11-23T21:26:58.292Z,11.48
2023-11-23T21:29:00.510Z,12.57
2023-11-23T21:31:03.428Z,11.13
2023-11-23T21:33:06.731Z,7.95
2023-11-23T21:35:11.742Z,7.35
2023-11-23T21:37:13.815Z,12.38
2023-11-23T21:39:15.663Z,12.98
2023-11-23T21:41:17.747Z,7.43
2023-11-23T21:43:19.476Z,16.52
2023-11-23T21:45:21.497Z,18.08
2023-11-23T21:47:23.273Z,7.75
2023-11-23T21:49:25.008Z,15.68
2023-11-23T21:51:30.268Z,12.45
2023-11-23T21:53:33.777Z,10.68
2023-11-23T21:55:38.781Z,7.50
2023-11-23T21:57:41.412Z,16.42
2023-11-23T21:59:43.226Z,8.25
2023-11-23T22:01:45.028Z,8.23
2023-11-23T22:03:50.570Z,12.95
2023-11-23T22:05:53.288Z,13.82
2023-11-23T22:07:55.083Z,13.45
2023-11-23T22:09:57.053Z,17.40
2023-11-23T22:11:59.044Z,9.32
2023-11-23T22:14:00.750Z,10.63
2023-11-23T22:16:02.491Z,19.38
2023-11-23T22:18:04.472Z,12.38
2023-11-23T22:20:09.758Z,14.10
2023-11-23T22:22:12.003Z,11.55
2023-11-23T22:24:16.201Z,9.40
2023-11-23T22:26:18.256Z,8.32
2023-11-23T22:28:20.363Z,13.20
2023-11-23T22:30:22.308Z,10.88
2023-11-23T22:32:27.501Z,11.07
2023-11-23T22:34:29.763Z,13.25
2023-11-23T22:36:31.848Z,13.85
2023-11-23T22:38:33.863Z,15.48
2023-11-23T22:40:36.522Z,8.30
2023-11-23T22:42:39.747Z,9.38
2023-11-23T22:44:42.075Z,10.65
2023-11-23T22:46:44.199Z,15.20
2023-11-23T22:48:51.898Z,11.63
2023-11-23T22:50:53.812Z,13.63
2023-11-23T22:52:58.687Z,12.88
2023-11-23T22:55:01.370Z,10.68
2023-11-23T22:57:04.584Z,8.13
2023-11-23T22:59:06.378Z,10.68
2023-11-23T23:01:08.340Z,10.25
2023-11-23T23:03:10.237Z,13.15
2023-11-23T23:05:12.285Z,11.52
2023-11-23T23:07:14.043Z,11.73
2023-11-23T23:09:17.109Z,9.20
2023-11-23T23:11:22.299Z,8.52
2023-11-23T23:13:28.722Z,8.68
2023-11-23T23:15:30.832Z,5.68
2023-11-23T23:17:35.766Z,14.90
2023-11-23T23:19:40.215Z,11.82
2023-11-23T23:21:45.952Z,6.78
2023-11-23T23:23:50.329Z,12.35
2023-11-23T23:25:54.469Z,15.75
2023-11-23T23:27:56.667Z,11.20
2023-11-23T23:29:58.573Z,19.95
2023-11-23T23:32:02.961Z,14.80
2023-11-23T23:34:05.692Z,17.27
2023-11-23T23:36:14.170Z,12.95
2023-11-23T23:38:15.970Z,13.90
2023-11-23T23:40:17.810Z,7.40
2023-11-23T23:42:20.859Z,12.82
2023-11-23T23:44:23.567Z,12.98
2023-11-23T23:46:25.354Z,11.73
2023-11-23T23:48:27.208Z,20.50
2023-11-23T23:50:31.881Z,7.75
2023-11-23T23:52:37.664Z,16.20
2023-11-23T23:54:40.295Z,13.30
2023-11-23T23:56:42.051Z,12.85
2023-11-23T23:58:43.985Z,17.63
